Time;durP1;ratioP1;P1;durP2;ratioP2;P2;SDS_P1;SDS_P2;PMS_P1;PMS_P2;Temp;Humidity;BMP_temperature;BMP_pressure;BME280_temperature;BME280_humidity;BME280_pressure;Samples;Min_cycle;Max_cycle;Signal;HPM_P1;HPM_P2
2022/01/08 00:04:14;;;;;;;8.47;5.97;;;3.40;99.90;;;;;;12818871;23;20199;-79
2022/01/08 00:09:20;;;;;;;9.23;6.27;;;3.40;99.90;;;;;;12833043;23;20196;-77
2022/01/08 00:14:31;;;;;;;8.07;5.93;;;3.30;99.90;;;;;;12807254;23;20718;-78
2022/01/08 00:19:34;;;;;;;11.20;6.07;;;3.40;99.90;;;;;;12819493;23;20204;-78
2022/01/08 00:24:52;;;;;;;11.23;6.20;;;3.30;99.90;;;;;;12817601;23;20259;-78
2022/01/08 00:29:57;;;;;;;6.83;5.40;;;3.40;99.90;;;;;;12838151;23;20199;-76
2022/01/08 00:35:18;;;;;;;;;;;;;;;;;;;;;
2022/01/08 00:40:25;;;;;;;9.03;5.17;;;3.30;99.90;;;;;;12860893;23;20191;-80
2022/01/08 00:45:30;;;;;;;7.03;5.07;;;3.30;99.90;;;;;;12792745;23;20671;-77
2022/01/08 00:50:56;;;;;;;;;;;;;;;;;;;;;
2022/01/08 00:55:57;;;;;;;10.73;6.47;;;3.30;99.90;;;;;;12846361;23;20243;-77
2022/01/08 01:01:20;;;;;;;11.47;6.50;;;3.30;99.90;;;;;;12819874;23;20288;-77
2022/01/08 01:06:24;;;;;;;11.37;6.87;;;3.30;99.90;;;;;;12834015;23;20200;-77
2022/01/08 01:11:31;;;;;;;9.83;6.93;;;3.30;99.90;;;;;;12819880;23;20664;-78
2022/01/08 01:16:44;;;;;;;9.67;7.17;;;3.30;99.90;;;;;;12841114;23;20545;-78
2022/01/08 01:22:09;;;;;;;11.00;7.17;;;3.30;99.90;;;;;;12816986;23;20215;-77
2022/01/08 01:27:52;;;;;;;15.70;7.67;;;3.30;99.90;;;;;;12812324;23;20204;-78
2022/01/08 01:50:42;;;;;;;14.77;7.23;;;3.40;99.90;;;;;;12845144;23;20593;-79
2022/01/08 01:55:58;;;;;;;11.97;7.80;;;3.40;99.90;;;;;;12818456;23;20199;-77
2022/01/08 02:01:05;;;;;;;10.90;6.60;;;3.40;99.90;;;;;;12850830;22;20210;-77
2022/01/08 02:06:43;;;;;;;10.13;6.27;;;3.40;99.90;;;;;;12853803;23;20231;-79
2022/01/08 02:12:22;;;;;;;8.70;6.50;;;3.40;99.90;;;;;;12816906;23;20203;-76
2022/01/08 02:17:33;;;;;;;15.33;7.90;;;3.30;99.90;;;;;;12833754;23;20246;-78
2022/01/08 02:22:54;;;;;;;9.77;6.37;;;3.40;99.90;;;;;;12827129;23;20211;-76
2022/01/08 02:28:07;;;;;;;8.33;5.40;;;3.40;99.90;;;;;;12806123;23;20290;-77
2022/01/08 02:33:21;;;;;;;8.23;5.77;;;3.30;99.90;;;;;;12828980;23;20522;-76
2022/01/08 02:39:20;;;;;;;7.87;4.90;;;3.30;99.90;;;;;;12808894;23;20576;-78
2022/01/08 02:44:21;;;;;;;7.70;4.60;;;3.20;99.90;;;;;;12833386;23;20204;-78
2022/01/08 02:49:53;;;;;;;11.40;5.93;;;3.20;99.90;;;;;;12846752;23;20208;-78
2022/01/08 02:55:25;;;;;;;15.33;5.40;;;3.20;99.90;;;;;;12815057;23;20298;-78
2022/01/08 03:00:54;;;;;;;8.47;4.33;;;3.20;99.90;;;;;;12837052;23;20876;-78
2022/01/08 03:05:58;;;;;;;12.97;6.00;;;3.10;99.90;;;;;;12793096;23;20687;-77
2022/01/08 03:11:14;;;;;;;13.27;6.43;;;2.90;99.90;;;;;;12811863;23;20198;-76
2022/01/08 03:22:28;;;;;;;9.47;5.97;;;2.70;99.90;;;;;;12853033;23;20664;-77
2022/01/08 03:27:53;;;;;;;14.43;7.40;;;2.70;99.90;;;;;;12840214;22;20243;-77
2022/01/08 03:32:54;;;;;;;11.37;6.93;;;2.60;99.90;;;;;;12808163;23;20196;-77
2022/01/08 03:37:55;;;;;;;11.40;7.30;;;2.70;99.90;;;;;;12805431;23;20287;-77
2022/01/08 03:42:56;;;;;;;10.40;7.67;;;2.70;99.90;;;;;;12829013;23;20208;-76
2022/01/08 03:53:16;;;;;;;6.70;5.03;;;2.40;99.90;;;;;;12858650;23;20203;-77
2022/01/08 03:58:18;;;;;;;9.13;6.37;;;2.10;99.90;;;;;;12830012;23;20203;-76
2022/01/08 04:03:18;;;;;;;8.20;6.10;;;2.00;99.90;;;;;;12857929;23;20200;-76
2022/01/08 04:08:19;;;;;;;6.67;5.07;;;2.00;99.90;;;;;;12831295;23;20220;-76
2022/01/08 04:13:27;;;;;;;5.57;4.90;;;2.00;99.90;;;;;;12832124;23;20223;-76
2022/01/08 04:18:27;;;;;;;6.53;5.73;;;2.10;99.90;;;;;;12828922;23;20669;-76
2022/01/08 04:23:28;;;;;;;10.60;6.83;;;2.10;99.90;;;;;;12830328;23;20228;-75
2022/01/08 04:28:29;;;;;;;6.80;5.33;;;2.10;99.90;;;;;;12856540;23;20198;-76
2022/01/08 04:33:30;;;;;;;5.87;4.77;;;2.10;99.90;;;;;;12857000;23;20266;-76
2022/01/08 04:38:32;;;;;;;7.60;5.27;;;2.10;99.90;;;;;;12804033;23;20188;-76
2022/01/08 04:43:33;;;;;;;6.60;5.37;;;2.20;99.90;;;;;;12857409;23;20310;-76
2022/01/08 04:48:34;;;;;;;5.67;4.53;;;2.20;99.90;;;;;;12828461;23;20199;-76
2022/01/08 04:53:34;;;;;;;7.13;5.53;;;2.10;99.90;;;;;;12827368;23;20601;-76
2022/01/08 04:58:35;;;;;;;5.60;4.80;;;2.00;99.90;;;;;;12855019;23;20204;-76
2022/01/08 05:03:35;;;;;;;6.63;5.20;;;2.00;99.90;;;;;;12856961;23;20211;-76
2022/01/08 05:08:36;;;;;;;7.07;5.23;;;2.00;99.90;;;;;;12829486;23;20259;-76
2022/01/08 05:13:38;;;;;;;10.17;6.33;;;2.00;99.90;;;;;;12827628;23;20204;-77
2022/01/08 05:18:39;;;;;;;8.13;6.30;;;2.00;99.90;;;;;;12828219;23;20208;-77
2022/01/08 05:23:39;;;;;;;10.63;6.93;;;2.10;99.90;;;;;;12828272;23;20196;-76
2022/01/08 05:28:40;;;;;;;8.30;6.00;;;2.20;99.90;;;;;;12827983;23;20208;-76
2022/01/08 05:33:41;;;;;;;8.67;5.87;;;2.20;99.90;;;;;;12827536;23;20196;-76
2022/01/08 05:38:42;;;;;;;7.67;5.50;;;2.20;99.90;;;;;;12856710;23;20204;-75
2022/01/08 05:43:42;;;;;;;9.60;5.10;;;2.10;99.90;;;;;;12854657;23;20196;-76
2022/01/08 05:48:46;;;;;;;7.40;5.40;;;2.10;99.90;;;;;;12854164;23;20200;-77
2022/01/08 05:53:47;;;;;;;8.53;5.37;;;2.00;99.90;;;;;;12854242;23;20283;-76
2022/01/08 05:58:47;;;;;;;9.97;5.27;;;2.00;99.90;;;;;;12828069;23;20660;-76
2022/01/08 06:03:48;;;;;;;7.77;5.23;;;2.10;99.90;;;;;;12828554;23;20656;-76
2022/01/08 06:08:48;;;;;;;6.27;5.13;;;2.10;99.90;;;;;;12853169;23;20239;-78
2022/01/08 06:13:49;;;;;;;9.90;5.27;;;2.10;99.90;;;;;;12829982;23;20199;-75
2022/01/08 06:18:50;;;;;;;8.17;5.10;;;2.20;99.90;;;;;;12829387;23;20218;-76
2022/01/08 06:23:50;;;;;;;6.83;4.90;;;2.20;99.90;;;;;;12827189;23;20195;-76
2022/01/08 06:28:51;;;;;;;9.23;5.23;;;2.20;99.90;;;;;;12826046;23;20199;-76
2022/01/08 06:33:53;;;;;;;12.33;6.33;;;2.30;99.90;;;;;;12827229;23;20234;-76
2022/01/08 06:38:53;;;;;;;10.10;5.73;;;2.30;99.90;;;;;;12827560;23;20210;-74
2022/01/08 06:43:54;;;;;;;11.10;5.67;;;2.30;99.90;;;;;;12827143;23;20227;-77
2022/01/08 06:48:54;;;;;;;12.87;5.97;;;2.30;99.90;;;;;;12852925;23;20676;-76
2022/01/08 06:53:55;;;;;;;8.63;5.87;;;2.30;99.90;;;;;;12827972;23;20204;-76
2022/01/08 06:58:55;;;;;;;9.63;6.00;;;2.20;99.90;;;;;;12853844;23;20656;-76
2022/01/08 07:03:56;;;;;;;7.53;5.53;;;2.20;99.90;;;;;;12853592;23;20192;-77
2022/01/08 07:08:57;;;;;;;8.20;5.40;;;2.20;99.90;;;;;;12826590;23;20246;-76
2022/01/08 07:13:58;;;;;;;9.27;5.67;;;2.20;99.90;;;;;;12827441;23;20199;-75
2022/01/08 07:18:58;;;;;;;14.20;6.50;;;2.10;99.90;;;;;;12828122;23;20211;-76
2022/01/08 07:24:02;;;;;;;11.43;5.83;;;1.90;99.90;;;;;;12831028;23;20603;-77
2022/01/08 07:29:02;;;;;;;12.87;6.57;;;1.70;99.90;;;;;;12830764;23;20243;-77
2022/01/08 07:34:06;;;;;;;11.90;7.10;;;1.60;99.90;;;;;;12831665;23;20207;-76
2022/01/08 07:39:06;;;;;;;11.73;6.63;;;1.60;99.90;;;;;;12829466;23;20663;-76
2022/01/08 07:44:07;;;;;;;19.83;8.47;;;1.70;99.90;;;;;;12830648;23;20206;-76
2022/01/08 07:49:09;;;;;;;19.97;8.90;;;1.90;99.90;;;;;;12856395;23;20219;-76
2022/01/08 07:54:09;;;;;;;20.93;9.63;;;2.10;99.90;;;;;;12857012;23;20203;-76
2022/01/08 07:59:10;;;;;;;24.87;10.33;;;2.30;99.90;;;;;;12856149;23;20248;-76
2022/01/08 08:04:11;;;;;;;17.10;10.47;;;2.40;99.90;;;;;;12829850;23;20195;-76
2022/01/08 08:09:11;;;;;;;23.20;11.53;;;2.50;99.90;;;;;;12828443;23;20199;-76
2022/01/08 08:14:12;;;;;;;23.80;11.67;;;2.70;99.90;;;;;;12830611;23;20723;-75
2022/01/08 08:19:12;;;;;;;20.00;10.70;;;2.80;99.90;;;;;;12829856;23;20652;-76
2022/01/08 08:24:14;;;;;;;24.33;11.57;;;2.90;99.90;;;;;;12858230;23;20230;-78
2022/01/08 08:29:15;;;;;;;23.10;10.83;;;2.90;99.90;;;;;;12855691;23;20279;-77
2022/01/08 08:34:15;;;;;;;21.27;11.07;;;2.80;99.90;;;;;;12829962;23;20640;-76
2022/01/08 08:39:16;;;;;;;23.00;11.50;;;2.80;99.90;;;;;;12830500;23;20259;-75
2022/01/08 08:44:17;;;;;;;18.53;11.07;;;2.90;99.90;;;;;;12829032;23;20754;-76
2022/01/08 08:49:17;;;;;;;18.07;11.03;;;2.90;99.90;;;;;;12830412;23;20203;-75
2022/01/08 08:54:18;;;;;;;17.10;10.97;;;2.90;99.90;;;;;;12829572;23;20299;-76
2022/01/08 08:59:19;;;;;;;18.70;11.60;;;2.80;99.90;;;;;;12828199;23;20296;-76
2022/01/08 09:04:19;;;;;;;19.50;11.77;;;2.90;99.90;;;;;;12856014;23;20251;-77
2022/01/08 09:09:20;;;;;;;18.33;9.53;;;2.90;99.90;;;;;;12828755;23;20204;-76
2022/01/08 09:14:22;;;;;;;17.47;8.50;;;3.00;99.90;;;;;;12856011;23;20404;-75
2022/01/08 09:19:24;;;;;;;17.47;8.10;;;3.00;99.90;;;;;;12829550;23;20407;-75
2022/01/08 09:24:24;;;;;;;13.53;7.10;;;3.50;99.90;;;;;;12829213;23;20212;-76
2022/01/08 09:29:25;;;;;;;11.27;6.03;;;4.40;99.90;;;;;;12856011;23;20196;-77
2022/01/08 09:34:27;;;;;;;8.20;5.77;;;4.40;99.90;;;;;;12829569;23;20215;-77
2022/01/08 09:39:27;;;;;;;17.13;6.20;;;4.20;99.90;;;;;;12827632;23;20219;-76
2022/01/08 09:44:28;;;;;;;11.87;5.30;;;4.20;99.90;;;;;;12855022;23;20199;-76
2022/01/08 09:49:29;;;;;;;11.10;4.83;;;4.20;99.90;;;;;;12852716;23;20247;-76
2022/01/08 09:54:30;;;;;;;12.97;5.03;;;4.20;99.90;;;;;;12855579;23;20282;-76
2022/01/08 09:59:31;;;;;;;16.30;5.10;;;4.10;99.90;;;;;;12828109;23;20403;-76
2022/01/08 10:04:35;;;;;;;11.67;5.13;;;4.10;99.90;;;;;;12856454;23;20196;-76
2022/01/08 10:09:35;;;;;;;8.67;4.80;;;4.30;99.90;;;;;;12829803;23;20612;-76
2022/01/08 10:17:13;;;;;;;8.73;4.30;;;4.50;99.90;;;;;;12854957;23;20210;-76
2022/01/08 10:19:56;;;;;;;9.23;3.60;;;4.70;99.90;;;;;;12853950;23;20267;-77
2022/01/08 10:25:11;;;;;;;6.23;3.47;;;4.90;99.90;;;;;;12829437;23;20246;-78
2022/01/08 10:30:25;;;;;;;12.67;3.80;;;5.10;99.90;;;;;;12827199;23;20188;-76
2022/01/08 10:35:47;;;;;;;9.70;4.10;;;5.70;99.90;;;;;;12827453;23;20301;-77
2022/01/08 10:40:48;;;;;;;6.00;2.90;;;7.60;99.90;;;;;;12826042;23;20200;-78
2022/01/08 10:45:54;;;;;;;7.23;2.83;;;10.70;99.90;;;;;;12828033;23;20208;-78
2022/01/08 10:51:09;;;;;;;8.30;2.60;;;9.80;99.90;;;;;;12828028;23;20200;-77
2022/01/08 10:56:33;;;;;;;5.50;2.50;;;9.20;99.90;;;;;;12830217;23;20217;-76
2022/01/08 11:01:58;;;;;;;6.83;2.60;;;8.10;99.90;;;;;;12829071;23;20734;-76
2022/01/08 11:07:02;;;;;;;5.70;2.93;;;6.60;99.90;;;;;;12830607;23;20202;-76
2022/01/08 11:12:06;;;;;;;8.33;3.27;;;6.00;99.90;;;;;;12831079;23;20758;-75
2022/01/08 11:17:16;;;;;;;6.33;2.93;;;6.10;99.90;;;;;;12830122;23;20280;-77
2022/01/08 11:22:21;;;;;;;8.50;3.27;;;6.10;99.90;;;;;;12829830;23;20207;-76
2022/01/08 11:27:28;;;;;;;6.27;3.93;;;6.00;99.90;;;;;;12828889;23;20659;-77
2022/01/08 11:32:35;;;;;;;7.17;3.70;;;5.80;99.90;;;;;;12830380;23;20204;-77
2022/01/08 11:37:36;;;;;;;9.27;3.97;;;5.70;99.90;;;;;;12854679;23;20214;-77
2022/01/08 11:42:39;;;;;;;6.27;3.07;;;5.70;99.90;;;;;;12857299;23;20211;-77
2022/01/08 11:47:47;;;;;;;7.50;2.67;;;5.80;99.90;;;;;;12829541;23;20339;-76
2022/01/08 11:53:15;;;;;;;6.23;2.90;;;5.90;99.90;;;;;;12831705;23;20299;-77
2022/01/08 11:58:23;;;;;;;6.53;2.70;;;5.90;99.90;;;;;;12829102;23;20227;-76
2022/01/08 12:03:35;;;;;;;6.00;2.93;;;6.00;99.90;;;;;;12829393;23;20279;-77
2022/01/08 12:09:21;;;;;;;8.10;3.00;;;5.80;99.90;;;;;;12829305;23;20200;-75
2022/01/08 12:14:30;;;;;;;6.40;2.53;;;5.50;99.90;;;;;;12857947;23;20211;-76
2022/01/08 12:19:37;;;;;;;5.27;2.70;;;5.70;99.90;;;;;;12855763;23;20215;-76
2022/01/08 12:24:38;;;;;;;5.83;2.30;;;6.00;99.90;;;;;;12831738;23;20246;-76
2022/01/08 12:29:40;;;;;;;4.93;2.33;;;6.20;99.90;;;;;;12856759;23;20203;-78
2022/01/08 12:34:48;;;;;;;4.10;2.10;;;6.20;99.90;;;;;;12832466;23;20207;-77
2022/01/08 12:39:51;;;;;;;4.97;1.87;;;6.40;99.90;;;;;;12833554;23;20204;-75
2022/01/08 12:45:07;;;;;;;3.70;1.90;;;6.30;99.90;;;;;;12830059;23;20624;-77
2022/01/08 12:50:21;;;;;;;4.77;1.87;;;6.10;99.90;;;;;;12853639;23;20274;-76
2022/01/08 12:55:22;;;;;;;7.00;2.13;;;6.00;99.90;;;;;;12829410;23;20631;-76
2022/01/08 13:00:24;;;;;;;7.87;2.07;;;5.90;99.90;;;;;;12830821;23;20199;-76
2022/01/08 13:05:26;;;;;;;5.67;1.87;;;5.80;99.90;;;;;;12857460;23;20188;-76
2022/01/08 13:10:32;;;;;;;5.43;2.00;;;5.70;99.90;;;;;;12803170;23;20207;-75
2022/01/08 13:15:33;;;;;;;3.90;1.97;;;5.70;99.90;;;;;;12828636;23;20590;-77
2022/01/08 13:20:33;;;;;;;3.43;1.67;;;5.60;99.90;;;;;;12828375;23;20230;-76
2022/01/08 13:25:34;;;;;;;3.70;2.00;;;5.50;99.90;;;;;;12855270;23;20210;-77
2022/01/08 13:30:36;;;;;;;2.70;1.47;;;5.50;99.90;;;;;;12829836;23;20207;-75
2022/01/08 13:35:37;;;;;;;3.97;1.60;;;5.50;99.90;;;;;;12828175;23;20206;-77
2022/01/08 13:40:40;;;;;;;6.80;1.63;;;5.50;99.90;;;;;;12827795;23;20679;-77
2022/01/08 13:45:52;;;;;;;7.50;2.10;;;5.40;99.90;;;;;;12855116;23;20196;-76
2022/01/08 13:50:58;;;;;;;6.40;2.03;;;5.30;99.90;;;;;;12828462;23;20251;-76
2022/01/08 13:55:59;;;;;;;7.10;2.27;;;5.30;99.90;;;;;;12827896;23;20219;-77
2022/01/08 14:01:11;;;;;;;6.07;1.90;;;5.20;99.90;;;;;;12828231;23;20219;-76
2022/01/08 14:06:23;;;;;;;4.83;2.10;;;5.10;99.90;;;;;;12855709;23;20652;-76
2022/01/08 14:11:23;;;;;;;4.27;2.13;;;5.10;99.90;;;;;;12827081;23;20238;-76
2022/01/08 14:16:33;;;;;;;3.07;1.73;;;5.10;99.90;;;;;;12829045;23;20204;-76
2022/01/08 14:21:34;;;;;;;4.60;1.77;;;5.00;99.90;;;;;;12828252;23;20208;-76
2022/01/08 14:26:38;;;;;;;3.93;2.03;;;4.90;99.90;;;;;;12804394;23;20222;-76
2022/01/08 14:31:43;;;;;;;4.23;2.30;;;4.90;99.90;;;;;;12831678;23;20236;-77
2022/01/08 14:36:48;;;;;;;3.17;1.90;;;4.90;99.90;;;;;;12832976;23;20290;-76
2022/01/08 14:41:54;;;;;;;3.57;1.93;;;4.90;99.90;;;;;;12832428;23;20211;-76
2022/01/08 14:46:56;;;;;;;2.90;1.33;;;4.80;99.90;;;;;;12834944;23;20234;-77
2022/01/08 14:51:57;;;;;;;4.90;1.90;;;4.70;99.90;;;;;;12860387;23;20254;-77
2022/01/08 14:56:58;;;;;;;4.80;1.63;;;4.60;99.90;;;;;;12833032;23;20219;-78
2022/01/08 15:01:59;;;;;;;6.00;1.87;;;4.60;99.90;;;;;;12860096;23;20215;-76
2022/01/08 15:07:00;;;;;;;2.33;2.13;;;4.50;99.90;;;;;;12858955;23;20422;-77
2022/01/08 15:12:01;;;;;;;4.67;2.53;;;4.40;99.90;;;;;;12858515;23;20730;-76
2022/01/08 15:17:06;;;;;;;3.10;2.17;;;4.40;99.90;;;;;;12858997;23;20266;-77
2022/01/08 15:22:07;;;;;;;3.70;2.40;;;4.40;99.90;;;;;;12860814;23;20231;-77
2022/01/08 15:27:08;;;;;;;6.13;2.30;;;4.40;99.90;;;;;;12835436;23;20718;-77
2022/01/08 15:32:11;;;;;;;5.07;2.60;;;4.40;99.90;;;;;;12861450;23;20545;-77
2022/01/08 15:37:12;;;;;;;4.47;1.90;;;4.40;99.90;;;;;;12857916;23;20282;-76
2022/01/08 15:42:12;;;;;;;3.87;1.90;;;4.30;99.90;;;;;;12816014;23;20204;-77
2022/01/08 15:47:13;;;;;;;3.77;2.17;;;4.30;99.90;;;;;;12830453;23;20759;-76
2022/01/08 15:52:14;;;;;;;3.20;2.33;;;4.30;99.90;;;;;;12831449;23;20200;-77
2022/01/08 15:57:15;;;;;;;4.77;2.43;;;4.10;99.90;;;;;;12831566;23;20200;-76
2022/01/08 16:02:16;;;;;;;6.53;2.67;;;4.00;99.90;;;;;;12832488;23;20283;-77
2022/01/08 16:07:16;;;;;;;5.93;2.57;;;3.90;99.90;;;;;;12833366;23;20215;-77
2022/01/08 16:12:23;;;;;;;5.80;2.57;;;3.80;99.90;;;;;;12831727;23;20227;-76
2022/01/08 16:17:27;;;;;;;6.60;3.30;;;3.70;99.90;;;;;;12829660;23;20222;-77
2022/01/08 16:22:27;;;;;;;8.10;3.13;;;3.70;99.90;;;;;;12856803;23;20239;-77
2022/01/08 16:27:28;;;;;;;6.37;3.13;;;3.60;99.90;;;;;;12829579;23;20212;-76
2022/01/08 16:32:28;;;;;;;6.00;2.70;;;3.60;99.90;;;;;;12830760;23;20204;-77
2022/01/08 16:37:29;;;;;;;7.70;3.17;;;3.70;99.90;;;;;;12829320;23;20236;-78
2022/01/08 16:42:30;;;;;;;7.63;3.50;;;3.70;99.90;;;;;;12830749;23;20888;-77
2022/01/08 16:47:31;;;;;;;7.17;3.20;;;3.70;99.90;;;;;;12829160;23;20207;-77
2022/01/08 16:52:32;;;;;;;5.13;2.87;;;3.80;99.90;;;;;;12829764;23;20215;-77
2022/01/08 16:57:33;;;;;;;3.83;2.77;;;3.90;99.90;;;;;;12829685;23;20254;-78
2022/01/08 17:02:34;;;;;;;5.50;3.00;;;3.90;99.90;;;;;;12830653;23;20239;-78
2022/01/08 17:07:34;;;;;;;6.67;3.10;;;4.00;99.90;;;;;;12831431;23;20223;-76
2022/01/08 17:12:35;;;;;;;4.57;3.00;;;4.00;99.90;;;;;;12833613;23;20210;-77
2022/01/08 17:17:36;;;;;;;5.87;2.93;;;4.10;99.90;;;;;;12860654;23;20199;-77
2022/01/08 17:22:37;;;;;;;5.53;2.77;;;4.10;99.90;;;;;;12831759;23;20218;-77
2022/01/08 17:27:37;;;;;;;4.80;2.33;;;4.10;99.90;;;;;;12830246;23;20618;-77
2022/01/08 17:32:38;;;;;;;3.37;2.10;;;4.20;99.90;;;;;;12859661;23;20211;-77
2022/01/08 17:37:39;;;;;;;3.80;2.47;;;4.20;99.90;;;;;;12831201;23;20199;-76
2022/01/08 17:42:40;;;;;;;3.43;2.40;;;4.30;99.90;;;;;;12855905;23;20207;-77
2022/01/08 17:47:40;;;;;;;4.63;2.00;;;4.20;99.90;;;;;;12828327;23;20234;-77
2022/01/08 17:52:41;;;;;;;2.87;2.03;;;4.20;99.90;;;;;;12829101;23;20203;-77
2022/01/08 17:57:42;;;;;;;2.57;1.60;;;4.20;99.90;;;;;;12827710;23;20200;-76
2022/01/08 18:02:44;;;;;;;1.53;1.43;;;4.10;99.90;;;;;;12829506;23;20213;-78
2022/01/08 18:07:45;;;;;;;3.67;2.23;;;4.10;99.90;;;;;;12855466;23;20282;-76
2022/01/08 18:12:46;;;;;;;5.57;1.90;;;4.20;99.90;;;;;;12830784;23;20208;-76
2022/01/08 18:17:48;;;;;;;2.73;1.67;;;4.10;99.90;;;;;;12829903;23;20251;-76
2022/01/08 18:22:50;;;;;;;2.60;1.63;;;4.20;99.90;;;;;;12832056;23;20204;-77
2022/01/08 18:27:51;;;;;;;3.07;1.90;;;4.20;99.90;;;;;;12805970;23;20212;-77
2022/01/08 18:32:54;;;;;;;5.70;2.27;;;4.20;99.90;;;;;;12830992;23;20202;-77
2022/01/08 18:37:54;;;;;;;3.57;1.50;;;4.30;99.90;;;;;;12831393;23;20848;-77
2022/01/08 18:42:56;;;;;;;5.43;2.20;;;4.30;99.90;;;;;;12831979;23;20211;-76
2022/01/08 18:47:57;;;;;;;5.70;2.27;;;4.30;99.90;;;;;;12805190;23;20643;-76
2022/01/08 18:52:57;;;;;;;6.00;3.43;;;4.30;99.90;;;;;;12827221;23;20220;-77
2022/01/08 18:58:13;;;;;;;3.30;2.10;;;4.40;99.90;;;;;;12826305;23;20674;-76
2022/01/08 19:03:15;;;;;;;2.57;2.27;;;4.40;99.90;;;;;;12803671;23;20204;-76
2022/01/08 19:08:15;;;;;;;4.37;2.20;;;4.30;99.90;;;;;;12827899;23;20219;-76
2022/01/08 19:13:16;;;;;;;2.70;2.23;;;4.30;99.90;;;;;;12855497;23;20200;-76
2022/01/08 19:18:20;;;;;;;4.67;1.90;;;4.30;99.90;;;;;;12831678;23;20761;-77
2022/01/08 19:23:21;;;;;;;3.27;2.23;;;4.30;99.90;;;;;;12832317;23;20215;-77
2022/01/08 19:28:22;;;;;;;3.47;2.20;;;4.30;99.90;;;;;;12830979;23;20211;-76
2022/01/08 19:33:23;;;;;;;4.50;2.40;;;4.30;99.90;;;;;;12833103;23;20196;-79
2022/01/08 19:38:23;;;;;;;3.30;2.17;;;4.30;99.90;;;;;;12858592;23;20196;-77
2022/01/08 19:43:25;;;;;;;2.87;1.67;;;4.30;99.90;;;;;;12832282;23;20216;-75
2022/01/08 19:48:26;;;;;;;4.30;1.87;;;4.30;99.90;;;;;;12829146;23;20200;-75
2022/01/08 19:53:27;;;;;;;3.17;1.77;;;4.30;99.90;;;;;;12857437;23;20202;-78
2022/01/08 19:58:27;;;;;;;3.23;1.87;;;4.30;99.90;;;;;;12830910;23;20223;-76
2022/01/08 20:03:28;;;;;;;3.70;2.00;;;4.30;99.90;;;;;;12829500;23;20291;-76
2022/01/08 20:08:29;;;;;;;4.33;1.63;;;4.40;99.90;;;;;;12813252;23;20825;-76
2022/01/08 20:13:30;;;;;;;2.93;1.53;;;4.30;99.90;;;;;;12830629;23;20208;-77
2022/01/08 20:18:31;;;;;;;8.33;1.90;;;4.30;99.90;;;;;;12830087;23;20195;-76
2022/01/08 20:23:32;;;;;;;3.37;1.90;;;4.30;99.90;;;;;;12856695;23;20258;-76
2022/01/08 20:28:33;;;;;;;3.13;2.20;;;4.40;99.90;;;;;;12831835;23;20210;-77
2022/01/08 20:33:38;;;;;;;5.63;2.40;;;4.30;99.90;;;;;;12859874;23;20204;-77
2022/01/08 20:38:39;;;;;;;4.67;2.20;;;4.40;99.90;;;;;;12803328;23;20192;-77
2022/01/08 20:43:42;;;;;;;4.10;1.83;;;4.40;99.90;;;;;;12856225;23;20221;-77
2022/01/08 20:48:44;;;;;;;4.47;2.10;;;4.50;99.90;;;;;;12828769;23;20295;-76
2022/01/08 20:53:46;;;;;;;2.00;1.40;;;4.50;99.90;;;;;;12830333;23;20208;-76
2022/01/08 20:58:47;;;;;;;3.27;1.93;;;4.60;99.90;;;;;;12829837;23;20204;-76
2022/01/08 21:03:48;;;;;;;3.60;1.30;;;4.70;99.90;;;;;;12856219;23;20224;-77
2022/01/08 21:08:49;;;;;;;4.13;1.43;;;4.80;99.90;;;;;;12832490;23;20199;-78
2022/01/08 21:13:52;;;;;;;2.70;1.57;;;4.80;99.90;;;;;;12830298;23;20211;-77
2022/01/08 21:18:53;;;;;;;2.40;1.30;;;4.90;99.90;;;;;;12855457;23;20690;-77
2022/01/08 21:23:55;;;;;;;1.50;0.97;;;4.90;99.90;;;;;;12830836;23;20233;-76
2022/01/08 21:28:56;;;;;;;1.93;1.40;;;4.80;99.90;;;;;;12829619;23;20272;-76
2022/01/08 21:33:58;;;;;;;2.50;1.37;;;4.80;99.90;;;;;;12829113;23;20272;-77
2022/01/08 21:39:04;;;;;;;3.27;1.43;;;4.80;99.90;;;;;;12829508;23;20215;-77
2022/01/08 21:44:07;;;;;;;5.00;1.20;;;4.80;99.90;;;;;;12832322;23;20266;-78
2022/01/08 21:49:08;;;;;;;2.63;1.03;;;4.80;99.90;;;;;;12828751;23;20204;-76
2022/01/08 21:54:11;;;;;;;4.07;1.17;;;4.80;99.90;;;;;;12856439;23;20531;-77
2022/01/08 21:59:13;;;;;;;3.13;1.20;;;4.80;99.90;;;;;;12828103;23;20313;-78
2022/01/08 22:04:13;;;;;;;1.77;1.40;;;4.90;99.90;;;;;;12856274;23;20200;-76
2022/01/08 22:09:14;;;;;;;1.90;1.13;;;4.90;99.90;;;;;;12828390;23;20554;-76
2022/01/08 22:14:15;;;;;;;4.73;1.30;;;5.10;99.90;;;;;;12831611;23;20204;-77
2022/01/08 22:19:15;;;;;;;1.43;0.73;;;5.20;99.90;;;;;;12830020;23;20251;-78
2022/01/08 22:24:17;;;;;;;1.33;0.90;;;5.40;99.90;;;;;;12815470;23;20192;-77
2022/01/08 22:29:17;;;;;;;2.47;1.00;;;5.50;99.90;;;;;;12828106;23;20215;-76
2022/01/08 22:34:18;;;;;;;3.60;1.43;;;5.60;99.90;;;;;;12832645;23;20223;-77
2022/01/08 22:39:20;;;;;;;2.70;1.07;;;5.80;99.90;;;;;;12828223;23;20282;-76
2022/01/08 22:44:21;;;;;;;1.73;1.30;;;5.80;99.90;;;;;;12829730;23;20207;-77
2022/01/08 22:49:22;;;;;;;2.13;1.00;;;5.90;99.90;;;;;;12829911;23;20203;-78
2022/01/08 22:54:25;;;;;;;2.17;1.00;;;6.00;99.90;;;;;;12858691;23;20198;-76
2022/01/08 22:59:26;;;;;;;3.47;1.20;;;6.00;99.90;;;;;;12859319;23;20547;-78
2022/01/08 23:04:30;;;;;;;3.67;1.20;;;6.00;99.90;;;;;;12833208;23;20231;-76
2022/01/08 23:09:33;;;;;;;3.33;1.40;;;5.70;99.90;;;;;;12833986;23;20594;-78
2022/01/08 23:14:33;;;;;;;2.23;0.87;;;5.30;99.90;;;;;;12837378;23;20207;-76
2022/01/08 23:19:34;;;;;;;2.83;1.10;;;5.10;99.90;;;;;;12830802;23;20210;-77
2022/01/08 23:24:34;;;;;;;1.80;1.03;;;4.90;99.90;;;;;;12832538;23;20196;-77
2022/01/08 23:29:35;;;;;;;3.03;0.97;;;4.80;99.90;;;;;;12832554;23;20200;-76
2022/01/08 23:34:36;;;;;;;3.93;1.20;;;4.80;99.90;;;;;;12858279;23;20236;-77
2022/01/08 23:39:37;;;;;;;2.27;1.20;;;4.80;99.90;;;;;;12831092;23;20590;-76
2022/01/08 23:44:37;;;;;;;2.03;1.30;;;4.80;99.90;;;;;;12859509;23;20203;-76
2022/01/08 23:49:40;;;;;;;2.40;1.10;;;4.80;99.90;;;;;;12856999;23;20591;-77
2022/01/08 23:54:40;;;;;;;2.77;1.27;;;4.80;99.90;;;;;;12832015;23;20200;-76
2022/01/08 23:59:42;;;;;;;2.13;0.90;;;4.90;99.90;;;;;;12857184;23;20207;-75
